Pošljite nam besedila, fotografije in posnetke z letalskimi motivi na info@sierra5.net

Sob04Feb2023

Veter povzročal težave letalom v prihodu v Ljubljano

Informacije
Davor Golec

Danes je zaradi močnega severozahodnega in severnega vetra prišlo do večjega števila neuspelih (prvih) pristankov potniških letal na letih v Ljubljano ter preusmeritvijo Boeinga MAX iz Dubaja.

Prvi, ki zjutraj ni uspel pristati v prvem poskusu je bilo letalo Airbus A321NX Wizz Air-a iz London Lutona, drugi je bil Mitsubishi CRJ900 nemške Lufthanse iz Frankfurta, tretji je bil Embraer E170 francoskega HOP-a, ki opravlja lete v Ljubljano iz Pariza CDG za Air France, četrti pa je bil Boeing 737 MAX 8 iz Dubaja, letalske družbe flydubai. Slednji ni uspel pristati niti v drugem poskusu, medtem ko so ostali omenjeni pristali v drugem poskusu, nekam minut po prvem poskusu. Flydubai se je nato odločil za preusmeritev v Budimpešto. Zanimivo je, da se je posadka odločila za preusmeritev v madžarsko prestolnico, kjer tudi piha dokaj močan severnik (LHBP 041300Z 35023KT CAVOK 04/M07 Q1021 NOSIG=), ter ne v Benetke, kjer je bolj mirno (LIPZ 041250Z 09008KT 2500 BR SCT010 09/06 Q1021 NOSIG=). Ob 17.34 uri je uspešno na Brniku iz Budimpešte pristal tudi flydubai kar je skoraj 4 ure in pol zamude v prihodu.

V prvem poskusu so do 17.ure uspeli pristati Airbus A321neo Turkish Airlines-a iz Istanbula, ATR 76 Air Serbie iz Beograda, Airbus A320 hrvaškega Trade Air-a, ki se je vrnil z leta proti Tenerifom, Airbus A319 easyJet-a iz London Gatwick-a, Airbus A320 Trade Air-a na pozicijskem letu iz Beograda, Airbus A320 Swiss Int Air Lines iz Zuricha, Embraer E170 LOT-a iz Varšave.

Spodaj še METAR sporočila za ljubljansko letališče:

LJLJ 041300Z 36018G30KT 9999 VCSH FEW045 FEW060TCU 07/M06 Q1023 WS ALL RWY NOSIG=

LJLJ 041230Z 36013G25KT 340V050 9999 FEW065 SCT080 08/M06 Q1022 WS ALL RWY NOSIG=

LJLJ 041200Z 36010KT 320V060 9999 FEW065 SCT080 09/M08 Q1022 WS ALL RWY NOSIG=

LJLJ 041130Z 34014G26KT 290V070 9999 FEW065 08/M06 Q1022 WS ALL RWY NOSIG=

LJLJ 041100Z 36015G27KT 330V050 9999 FEW060 07/M06 Q1021 WS ALL RWY NOSIG=

LJLJ 041030Z 33009G20KT 270V030 9999 FEW060 08/M06 Q1021 WS ALL RWY NOSIG=

LJLJ 041000Z 34012G31KT 310V070 9999 FEW060 08/M07 Q1021 WS ALL RWY NOSIG=

LJLJ 040930Z VRB08G24KT 9999 FEW060 09/M09 Q1020 WS ALL RWY NOSIG=

LJLJ 040900Z 33015G30KT 290V010 9999 FEW060 08/M07 Q1020 WS ALL RWY NOSIG=

LJLJ 040830Z 34018G33KT 310V020 9999 FEW055 08/M07 Q1019 WS ALL RWY NOSIG=

LJLJ 040800Z 34016G28KT 310V020 9999 FEW055 08/M05 Q1019 WS ALL RWY NOSIG=

LJLJ 040730Z 33013G28KT 290V020 9999 FEW055 09/M05 Q1018 WS ALL RWY NOSIG=

LJLJ 040700Z 33017G27KT 300V010 9999 FEW055 09/M05 Q1017 WS ALL RWY NOSIG=

LJLJ 040630Z 32017G29KT 9999 FEW038 08/M05 Q1017 WS ALL RWY NOSIG=

LJLJ 040600Z 32019KT 9999 FEW035 09/M04 Q1017 NOSIG=

LJLJ 040530Z 32019G32KT 9999 FEW035 08/M03 Q1016 NOSIG=

LJLJ 040500Z 31018KT 9999 FEW060 08/M03 Q1016 NOSIG=

Sorodni mediji

Oglasi

ČLANICE ADRIA GRUPE

AdriaGrupa2

ZAMAavijacijaLOGOmail 

flynaissus

 
FlyingBosnian

Avtorske pravice © 2007-2024 Sierra5.net. Vse pravice pridržane.